IGO1536 VEAB-VABB
Flight info
| Callsign | IGO1536 |
|---|---|
| Flight time | 1h 39m |
| Altitude | 34000 |
| Route | URBUR DCT KKJ G590 BPL W40 IID W10S AKTIV IGBAN2A |
| Aircraft | A321/M-SDE3FGHIRWY/LB1 |
Departure
| Time | 2026-05-04 12:22 |
|---|---|
| Airport | Prayagraj Airport (VEAB) |
Arrival
| Time | 2026-05-04 14:01 |
|---|---|
| Airport | Chhatrapati Shivaji Maharaj International Airport (VABB) |
| Time | Latitude | Longitude | Altitude | Speed | Heading |
|---|---|---|---|---|---|
| 2026-05-04 11:59 | 25.43121 | 81.74123 | 328 ft | 0 kts | 208° |
| 2026-05-04 12:11 | 25.43122 | 81.74123 | 328 ft | 0 kts | 208° |
| 2026-05-04 12:11 | 25.43133 | 81.74129 | 328 ft | 2 kts | 208° |
| 2026-05-04 12:12 | 25.43146 | 81.74138 | 328 ft | 2 kts | 211° |
| 2026-05-04 12:12 | 25.43157 | 81.74149 | 328 ft | 2 kts | 243° |
| 2026-05-04 12:12 | 25.43161 | 81.74165 | 328 ft | 2 kts | 267° |
| 2026-05-04 12:12 | 25.43160 | 81.74181 | 328 ft | 1 kts | 291° |
| 2026-05-04 12:13 | 25.43156 | 81.74189 | 328 ft | 1 kts | 298° |
| 2026-05-04 12:14 | 25.43155 | 81.74191 | 328 ft | 0 kts | 298° |
| 2026-05-04 12:16 | 25.43161 | 81.74178 | 328 ft | 5 kts | 298° |
| 2026-05-04 12:16 | 25.43199 | 81.74121 | 328 ft | 9 kts | 338° |
| 2026-05-04 12:16 | 25.43261 | 81.74152 | 328 ft | 11 kts | 28° |
| 2026-05-04 12:17 | 25.43338 | 81.74197 | 328 ft | 13 kts | 28° |
| 2026-05-04 12:17 | 25.43430 | 81.74251 | 328 ft | 16 kts | 29° |
| 2026-05-04 12:17 | 25.43538 | 81.74297 | 328 ft | 17 kts | 348° |
| 2026-05-04 12:17 | 25.43616 | 81.74191 | 328 ft | 19 kts | 300° |
| 2026-05-04 12:18 | 25.43683 | 81.74056 | 328 ft | 20 kts | 299° |
| 2026-05-04 12:18 | 25.43755 | 81.73910 | 328 ft | 23 kts | 298° |
| 2026-05-04 12:18 | 25.43841 | 81.73736 | 328 ft | 27 kts | 299° |
| 2026-05-04 12:18 | 25.43935 | 81.73548 | 328 ft | 28 kts | 299° |
| 2026-05-04 12:19 | 25.44028 | 81.73360 | 328 ft | 28 kts | 298° |
| 2026-05-04 12:19 | 25.44124 | 81.73166 | 328 ft | 28 kts | 298° |
| 2026-05-04 12:19 | 25.44216 | 81.72979 | 328 ft | 27 kts | 298° |
| 2026-05-04 12:19 | 25.44308 | 81.72794 | 328 ft | 26 kts | 299° |
| 2026-05-04 12:20 | 25.44397 | 81.72613 | 328 ft | 26 kts | 298° |
| 2026-05-04 12:20 | 25.44433 | 81.72465 | 328 ft | 18 kts | 273° |
| 2026-05-04 12:20 | 25.44478 | 81.72437 | 328 ft | 8 kts | 89° |
| 2026-05-04 12:20 | 25.44450 | 81.72508 | 328 ft | 11 kts | 120° |
| 2026-05-04 12:21 | 25.44410 | 81.72586 | 328 ft | 12 kts | 120° |
| 2026-05-04 12:21 | 25.44340 | 81.72727 | 328 ft | 44 kts | 118° |
| 2026-05-04 12:21 | 25.44087 | 81.73237 | 328 ft | 113 kts | 119° |
| 2026-05-04 12:21 | 25.43598 | 81.74229 | 329 ft | 180 kts | 118° |
| 2026-05-04 12:22 | 25.42950 | 81.75540 | 887 ft | 198 kts | 118° |
| 2026-05-04 12:22 | 25.42339 | 81.76787 | 1994 ft | 189 kts | 118° |
| 2026-05-04 12:22 | 25.41624 | 81.77945 | 2655 ft | 186 kts | 140° |
| 2026-05-04 12:22 | 25.40433 | 81.78569 | 2934 ft | 198 kts | 172° |
| 2026-05-04 12:23 | 25.39032 | 81.78439 | 3209 ft | 212 kts | 200° |
| 2026-05-04 12:23 | 25.37786 | 81.77480 | 3493 ft | 227 kts | 236° |
| 2026-05-04 12:23 | 25.37233 | 81.75826 | 3784 ft | 242 kts | 269° |
| 2026-05-04 12:23 | 25.37655 | 81.73983 | 4075 ft | 257 kts | 304° |
| 2026-05-04 12:24 | 25.38919 | 81.72556 | 4433 ft | 271 kts | 320° |
| 2026-05-04 12:24 | 25.40167 | 81.70974 | 4950 ft | 278 kts | 295° |
| 2026-05-04 12:24 | 25.40507 | 81.68911 | 5579 ft | 279 kts | 262° |
| 2026-05-04 12:24 | 25.39914 | 81.66885 | 6260 ft | 280 kts | 245° |
| 2026-05-04 12:25 | 25.39077 | 81.64941 | 6882 ft | 283 kts | 245° |
| 2026-05-04 12:25 | 25.38259 | 81.62960 | 7499 ft | 286 kts | 246° |
| 2026-05-04 12:25 | 25.37493 | 81.60929 | 8130 ft | 289 kts | 248° |
| 2026-05-04 12:25 | 25.36759 | 81.58833 | 8759 ft | 291 kts | 249° |
| 2026-05-04 12:26 | 25.36059 | 81.56734 | 9359 ft | 294 kts | 250° |
| 2026-05-04 12:26 | 25.35374 | 81.54617 | 9938 ft | 296 kts | 250° |
| 2026-05-04 12:26 | 25.34689 | 81.52464 | 10414 ft | 302 kts | 251° |
| 2026-05-04 12:26 | 25.33974 | 81.50198 | 10662 ft | 317 kts | 251° |
| 2026-05-04 12:27 | 25.33237 | 81.47847 | 10913 ft | 330 kts | 251° |
| 2026-05-04 12:27 | 25.32479 | 81.45424 | 11155 ft | 344 kts | 251° |
| 2026-05-04 12:27 | 25.31674 | 81.42848 | 11398 ft | 357 kts | 251° |
| 2026-05-04 12:27 | 25.30859 | 81.40240 | 11717 ft | 367 kts | 251° |
| 2026-05-04 12:28 | 25.30026 | 81.37575 | 12246 ft | 370 kts | 251° |
| 2026-05-04 12:28 | 25.29173 | 81.34847 | 12816 ft | 372 kts | 251° |
| 2026-05-04 12:28 | 25.28332 | 81.32150 | 13339 ft | 375 kts | 251° |
| 2026-05-04 12:28 | 25.27486 | 81.29436 | 13848 ft | 378 kts | 251° |
| 2026-05-04 12:29 | 25.26629 | 81.26691 | 14352 ft | 380 kts | 251° |
| 2026-05-04 12:29 | 25.25762 | 81.23923 | 14847 ft | 383 kts | 251° |
| 2026-05-04 12:29 | 25.24888 | 81.21135 | 15333 ft | 386 kts | 251° |
| 2026-05-04 12:29 | 25.24011 | 81.18345 | 15806 ft | 388 kts | 251° |
| 2026-05-04 12:30 | 25.23117 | 81.15500 | 16277 ft | 391 kts | 251° |
| 2026-05-04 12:30 | 25.22222 | 81.12657 | 16736 ft | 393 kts | 251° |
| 2026-05-04 12:30 | 25.21329 | 81.09824 | 17183 ft | 396 kts | 251° |
| 2026-05-04 12:30 | 25.20414 | 81.06921 | 17629 ft | 398 kts | 251° |
| 2026-05-04 12:31 | 25.19504 | 81.04040 | 18062 ft | 401 kts | 251° |
| 2026-05-04 12:31 | 25.18593 | 81.01159 | 18485 ft | 403 kts | 251° |
| 2026-05-04 12:31 | 25.17668 | 80.98236 | 18904 ft | 405 kts | 251° |
| 2026-05-04 12:31 | 25.16740 | 80.95303 | 19316 ft | 408 kts | 251° |
| 2026-05-04 12:32 | 25.15791 | 80.92308 | 19726 ft | 410 kts | 250° |
| 2026-05-04 12:32 | 25.13787 | 80.86413 | 20520 ft | 414 kts | 249° |
| 2026-05-04 12:32 | 25.12747 | 80.83433 | 20906 ft | 417 kts | 249° |
| 2026-05-04 12:33 | 25.11708 | 80.80455 | 21284 ft | 419 kts | 249° |
| 2026-05-04 12:33 | 25.10657 | 80.77443 | 21660 ft | 421 kts | 249° |
| 2026-05-04 12:33 | 25.09605 | 80.74427 | 22028 ft | 423 kts | 249° |
| 2026-05-04 12:33 | 25.08551 | 80.71404 | 22387 ft | 425 kts | 249° |
| 2026-05-04 12:34 | 25.07486 | 80.68351 | 22740 ft | 428 kts | 249° |
| 2026-05-04 12:34 | 25.06425 | 80.65312 | 23083 ft | 430 kts | 249° |
| 2026-05-04 12:34 | 25.05346 | 80.62224 | 23423 ft | 432 kts | 249° |
| 2026-05-04 12:34 | 25.04270 | 80.59144 | 23753 ft | 434 kts | 249° |
| 2026-05-04 12:35 | 25.03171 | 80.56003 | 24082 ft | 436 kts | 249° |
| 2026-05-04 12:35 | 25.02087 | 80.52905 | 24398 ft | 438 kts | 249° |
| 2026-05-04 12:35 | 25.00986 | 80.49764 | 24714 ft | 440 kts | 249° |
| 2026-05-04 12:35 | 24.99880 | 80.46609 | 25019 ft | 441 kts | 249° |
| 2026-05-04 12:36 | 24.98770 | 80.43446 | 25318 ft | 443 kts | 249° |
| 2026-05-04 12:36 | 24.97665 | 80.40300 | 25609 ft | 445 kts | 249° |
| 2026-05-04 12:36 | 24.96553 | 80.37135 | 25895 ft | 447 kts | 249° |
| 2026-05-04 12:36 | 24.95427 | 80.33933 | 26177 ft | 449 kts | 249° |
| 2026-05-04 12:37 | 24.94303 | 80.30728 | 26453 ft | 450 kts | 249° |
| 2026-05-04 12:37 | 24.93165 | 80.27486 | 26724 ft | 452 kts | 249° |
| 2026-05-04 12:37 | 24.92035 | 80.24273 | 26986 ft | 454 kts | 249° |
| 2026-05-04 12:37 | 24.90884 | 80.21009 | 27246 ft | 456 kts | 249° |
| 2026-05-04 12:38 | 24.89757 | 80.17821 | 27494 ft | 457 kts | 249° |
| 2026-05-04 12:38 | 24.88591 | 80.14558 | 27745 ft | 459 kts | 248° |
| 2026-05-04 12:38 | 24.87422 | 80.11298 | 28034 ft | 459 kts | 248° |
| 2026-05-04 12:38 | 24.86256 | 80.08037 | 28388 ft | 457 kts | 248° |
| 2026-05-04 12:39 | 24.85099 | 80.04789 | 28734 ft | 456 kts | 249° |
| 2026-05-04 12:39 | 24.83957 | 80.01575 | 29050 ft | 455 kts | 249° |
| 2026-05-04 12:39 | 24.82829 | 79.98399 | 29343 ft | 454 kts | 249° |
| 2026-05-04 12:39 | 24.81599 | 79.95190 | 29624 ft | 454 kts | 244° |
| 2026-05-04 12:40 | 24.80142 | 79.92080 | 29909 ft | 453 kts | 242° |
| 2026-05-04 12:40 | 24.78651 | 79.89074 | 30185 ft | 452 kts | 241° |
| 2026-05-04 12:40 | 24.77129 | 79.86018 | 30456 ft | 452 kts | 241° |
| 2026-05-04 12:40 | 24.75637 | 79.83003 | 30713 ft | 451 kts | 242° |
| 2026-05-04 12:41 | 24.74147 | 79.79968 | 30964 ft | 450 kts | 242° |
| 2026-05-04 12:41 | 24.72667 | 79.76939 | 31208 ft | 450 kts | 242° |
| 2026-05-04 12:41 | 24.71202 | 79.73933 | 31446 ft | 449 kts | 242° |
| 2026-05-04 12:41 | 24.69723 | 79.70892 | 31685 ft | 449 kts | 242° |
| 2026-05-04 12:42 | 24.68271 | 79.67906 | 31917 ft | 448 kts | 242° |
| 2026-05-04 12:42 | 24.66805 | 79.64890 | 32149 ft | 447 kts | 242° |
| 2026-05-04 12:42 | 24.65329 | 79.61853 | 32358 ft | 448 kts | 242° |
| 2026-05-04 12:42 | 24.63876 | 79.58867 | 32536 ft | 448 kts | 242° |
| 2026-05-04 12:43 | 24.62400 | 79.55833 | 32710 ft | 449 kts | 242° |
| 2026-05-04 12:43 | 24.60923 | 79.52799 | 32889 ft | 450 kts | 242° |
| 2026-05-04 12:43 | 24.59462 | 79.49800 | 33067 ft | 450 kts | 242° |
| 2026-05-04 12:43 | 24.57991 | 79.46781 | 33244 ft | 451 kts | 242° |
| 2026-05-04 12:44 | 24.56495 | 79.43716 | 33422 ft | 451 kts | 242° |
| 2026-05-04 12:44 | 24.55024 | 79.40701 | 33595 ft | 452 kts | 242° |
| 2026-05-04 12:44 | 24.53549 | 79.37682 | 33767 ft | 452 kts | 242° |
| 2026-05-04 12:44 | 24.52060 | 79.34635 | 33934 ft | 453 kts | 242° |
| 2026-05-04 12:45 | 24.50559 | 79.31555 | 33965 ft | 454 kts | 242° |
| 2026-05-04 12:45 | 24.47590 | 79.25461 | 33975 ft | 454 kts | 242° |
| 2026-05-04 12:46 | 24.44619 | 79.19386 | 33976 ft | 454 kts | 242° |
| 2026-05-04 12:46 | 24.41635 | 79.13303 | 33976 ft | 454 kts | 242° |
| 2026-05-04 12:47 | 24.38632 | 79.07190 | 33976 ft | 454 kts | 242° |
| 2026-05-04 12:47 | 24.35657 | 79.01144 | 33976 ft | 454 kts | 242° |
| 2026-05-04 12:48 | 24.32652 | 78.95046 | 33976 ft | 454 kts | 242° |
| 2026-05-04 12:48 | 24.29635 | 78.88930 | 33976 ft | 454 kts | 242° |
| 2026-05-04 12:49 | 24.26636 | 78.82858 | 33976 ft | 454 kts | 242° |
| 2026-05-04 12:49 | 24.23640 | 78.76800 | 33976 ft | 454 kts | 242° |
| 2026-05-04 12:50 | 24.20632 | 78.70726 | 33976 ft | 454 kts | 242° |
| 2026-05-04 12:50 | 24.17606 | 78.64624 | 33976 ft | 454 kts | 242° |
| 2026-05-04 12:51 | 24.14590 | 78.58549 | 33976 ft | 454 kts | 242° |
| 2026-05-04 12:51 | 24.11576 | 78.52487 | 33976 ft | 454 kts | 242° |
| 2026-05-04 12:52 | 24.08566 | 78.46439 | 33976 ft | 454 kts | 242° |
| 2026-05-04 12:52 | 24.05552 | 78.40391 | 33976 ft | 454 kts | 242° |
| 2026-05-04 12:53 | 24.02530 | 78.34334 | 33976 ft | 454 kts | 241° |
| 2026-05-04 12:53 | 23.99518 | 78.28281 | 33976 ft | 454 kts | 241° |
| 2026-05-04 12:54 | 23.96498 | 78.22223 | 33976 ft | 454 kts | 241° |
| 2026-05-04 12:54 | 23.93464 | 78.16160 | 33976 ft | 454 kts | 241° |
| 2026-05-04 12:55 | 23.90443 | 78.10134 | 33976 ft | 454 kts | 241° |
| 2026-05-04 12:55 | 23.87386 | 78.04086 | 33976 ft | 454 kts | 241° |
| 2026-05-04 12:56 | 23.84317 | 77.98029 | 33976 ft | 454 kts | 241° |
| 2026-05-04 12:56 | 23.81295 | 77.92046 | 33976 ft | 454 kts | 241° |
| 2026-05-04 12:57 | 23.78249 | 77.86008 | 33976 ft | 454 kts | 241° |
| 2026-05-04 12:57 | 23.75193 | 77.79954 | 33976 ft | 454 kts | 241° |
| 2026-05-04 12:58 | 23.72155 | 77.73941 | 33976 ft | 454 kts | 241° |
| 2026-05-04 12:58 | 23.69103 | 77.67910 | 33976 ft | 454 kts | 241° |
| 2026-05-04 12:59 | 23.66053 | 77.61887 | 33976 ft | 454 kts | 241° |
| 2026-05-04 12:59 | 23.63009 | 77.55886 | 33976 ft | 454 kts | 241° |
| 2026-05-04 13:00 | 23.59953 | 77.49868 | 33976 ft | 454 kts | 241° |
| 2026-05-04 13:00 | 23.56905 | 77.43872 | 33976 ft | 454 kts | 241° |
| 2026-05-04 13:01 | 23.53845 | 77.37859 | 33976 ft | 454 kts | 241° |
| 2026-05-04 13:01 | 23.50778 | 77.31832 | 33976 ft | 454 kts | 241° |
| 2026-05-04 13:02 | 23.47741 | 77.25852 | 33976 ft | 454 kts | 241° |
| 2026-05-04 13:02 | 23.44677 | 77.19840 | 33976 ft | 454 kts | 240° |
| 2026-05-04 13:03 | 23.41607 | 77.13834 | 33976 ft | 454 kts | 240° |
| 2026-05-04 13:03 | 23.38564 | 77.07891 | 33976 ft | 454 kts | 240° |
| 2026-05-04 13:04 | 23.35507 | 77.01929 | 33976 ft | 454 kts | 240° |
| 2026-05-04 13:04 | 23.32429 | 76.95933 | 33976 ft | 454 kts | 240° |
| 2026-05-04 13:05 | 23.29355 | 76.89952 | 33976 ft | 454 kts | 240° |
| 2026-05-04 13:05 | 23.26290 | 76.83995 | 33976 ft | 454 kts | 240° |
| 2026-05-04 13:06 | 23.23197 | 76.77992 | 33976 ft | 454 kts | 240° |
| 2026-05-04 13:06 | 23.20112 | 76.72010 | 33976 ft | 454 kts | 240° |
| 2026-05-04 13:07 | 23.17030 | 76.66043 | 33976 ft | 454 kts | 240° |
| 2026-05-04 13:07 | 23.13958 | 76.60102 | 33976 ft | 454 kts | 240° |
| 2026-05-04 13:08 | 23.10856 | 76.54110 | 33976 ft | 454 kts | 240° |
| 2026-05-04 13:08 | 23.07755 | 76.48128 | 33976 ft | 454 kts | 240° |
| 2026-05-04 13:09 | 23.04678 | 76.42198 | 33976 ft | 454 kts | 240° |
| 2026-05-04 13:09 | 23.01582 | 76.36239 | 33976 ft | 454 kts | 240° |
| 2026-05-04 13:10 | 22.98473 | 76.30244 | 33976 ft | 454 kts | 240° |
| 2026-05-04 13:10 | 22.95393 | 76.24309 | 33976 ft | 454 kts | 240° |
| 2026-05-04 13:11 | 22.92290 | 76.18352 | 33976 ft | 454 kts | 240° |
| 2026-05-04 13:11 | 22.89178 | 76.12396 | 33976 ft | 454 kts | 240° |
| 2026-05-04 13:12 | 22.86038 | 76.06445 | 33976 ft | 454 kts | 240° |
| 2026-05-04 13:12 | 22.82913 | 76.00499 | 33976 ft | 454 kts | 240° |
| 2026-05-04 13:13 | 22.79794 | 75.94553 | 33976 ft | 454 kts | 240° |
| 2026-05-04 13:13 | 22.76692 | 75.88642 | 33976 ft | 454 kts | 240° |
| 2026-05-04 13:14 | 22.73573 | 75.82705 | 33976 ft | 454 kts | 240° |
| 2026-05-04 13:14 | 22.70302 | 75.76882 | 33975 ft | 454 kts | 236° |
| 2026-05-04 13:15 | 22.66572 | 75.71326 | 33976 ft | 454 kts | 233° |
| 2026-05-04 13:15 | 22.62833 | 75.65870 | 33976 ft | 454 kts | 233° |
| 2026-05-04 13:16 | 22.59078 | 75.60394 | 33976 ft | 454 kts | 233° |
| 2026-05-04 13:16 | 22.55305 | 75.54891 | 33976 ft | 454 kts | 233° |
| 2026-05-04 13:17 | 22.51548 | 75.49416 | 33976 ft | 454 kts | 233° |
| 2026-05-04 13:17 | 22.47787 | 75.43941 | 33976 ft | 454 kts | 233° |
| 2026-05-04 13:18 | 22.44120 | 75.38606 | 33976 ft | 454 kts | 233° |
| 2026-05-04 13:18 | 22.40497 | 75.33338 | 33976 ft | 454 kts | 233° |
| 2026-05-04 13:19 | 22.36733 | 75.27846 | 33976 ft | 454 kts | 233° |
| 2026-05-04 13:19 | 22.32985 | 75.22395 | 33976 ft | 454 kts | 233° |
| 2026-05-04 13:20 | 22.29198 | 75.16903 | 33976 ft | 454 kts | 233° |
| 2026-05-04 13:20 | 22.25417 | 75.11430 | 33976 ft | 454 kts | 233° |
| 2026-05-04 13:21 | 22.21649 | 75.05981 | 33976 ft | 454 kts | 233° |
| 2026-05-04 13:21 | 22.17872 | 75.00529 | 33976 ft | 454 kts | 233° |
| 2026-05-04 13:22 | 22.14105 | 74.95094 | 33976 ft | 454 kts | 233° |
| 2026-05-04 13:22 | 22.10325 | 74.89646 | 33976 ft | 454 kts | 233° |
| 2026-05-04 13:23 | 22.06558 | 74.84222 | 33976 ft | 454 kts | 233° |
| 2026-05-04 13:23 | 22.02766 | 74.78768 | 33976 ft | 454 kts | 233° |
| 2026-05-04 13:24 | 21.98969 | 74.73312 | 33976 ft | 454 kts | 233° |
| 2026-05-04 13:24 | 21.95283 | 74.68021 | 33976 ft | 454 kts | 233° |
| 2026-05-04 13:25 | 21.89618 | 74.59902 | 33976 ft | 454 kts | 233° |
| 2026-05-04 13:25 | 21.85815 | 74.54497 | 33976 ft | 454 kts | 233° |
| 2026-05-04 13:26 | 21.81986 | 74.49049 | 33976 ft | 454 kts | 233° |
| 2026-05-04 13:26 | 21.78193 | 74.43638 | 33976 ft | 454 kts | 233° |
| 2026-05-04 13:27 | 21.74398 | 74.38223 | 33976 ft | 454 kts | 233° |
| 2026-05-04 13:27 | 21.70603 | 74.32806 | 33976 ft | 454 kts | 233° |
| 2026-05-04 13:28 | 21.66814 | 74.27379 | 33976 ft | 454 kts | 233° |
| 2026-05-04 13:28 | 21.63041 | 74.21995 | 33976 ft | 454 kts | 233° |
| 2026-05-04 13:29 | 21.59232 | 74.16575 | 33976 ft | 454 kts | 233° |
| 2026-05-04 13:29 | 21.55449 | 74.11201 | 33976 ft | 454 kts | 233° |
| 2026-05-04 13:30 | 21.51658 | 74.05821 | 33976 ft | 454 kts | 233° |
| 2026-05-04 13:30 | 21.47849 | 74.00422 | 33976 ft | 454 kts | 233° |
| 2026-05-04 13:31 | 21.44033 | 73.95019 | 33976 ft | 454 kts | 233° |
| 2026-05-04 13:31 | 21.40231 | 73.89640 | 33976 ft | 454 kts | 233° |
| 2026-05-04 13:32 | 21.36412 | 73.84245 | 33976 ft | 454 kts | 233° |
| 2026-05-04 13:32 | 21.32588 | 73.78848 | 33976 ft | 454 kts | 233° |
| 2026-05-04 13:33 | 21.28766 | 73.73461 | 33976 ft | 454 kts | 233° |
| 2026-05-04 13:33 | 21.24948 | 73.68086 | 33976 ft | 454 kts | 233° |
| 2026-05-04 13:34 | 21.21106 | 73.62872 | 33975 ft | 454 kts | 228° |
| 2026-05-04 13:34 | 21.16471 | 73.58343 | 33975 ft | 454 kts | 216° |
| 2026-05-04 13:35 | 21.08212 | 73.53663 | 33975 ft | 454 kts | 199° |
| 2026-05-04 13:36 | 21.02294 | 73.51650 | 33976 ft | 454 kts | 197° |
| 2026-05-04 13:36 | 20.96378 | 73.49702 | 33976 ft | 454 kts | 197° |
| 2026-05-04 13:36 | 20.93387 | 73.48708 | 33793 ft | 452 kts | 197° |
| 2026-05-04 13:37 | 20.90385 | 73.47708 | 33037 ft | 457 kts | 197° |
| 2026-05-04 13:37 | 20.87459 | 73.46732 | 32068 ft | 465 kts | 197° |
| 2026-05-04 13:37 | 20.84343 | 73.45695 | 31118 ft | 471 kts | 197° |
| 2026-05-04 13:37 | 20.82285 | 73.45009 | 30560 ft | 472 kts | 197° |
| 2026-05-04 13:38 | 20.78140 | 73.43626 | 29354 ft | 478 kts | 197° |
| 2026-05-04 13:38 | 20.75007 | 73.42579 | 28588 ft | 478 kts | 197° |
| 2026-05-04 13:38 | 20.71817 | 73.41512 | 27807 ft | 478 kts | 197° |
| 2026-05-04 13:38 | 20.68699 | 73.40470 | 27205 ft | 474 kts | 197° |
| 2026-05-04 13:39 | 20.65565 | 73.39422 | 26725 ft | 468 kts | 197° |
| 2026-05-04 13:39 | 20.62500 | 73.38398 | 26229 ft | 462 kts | 197° |
| 2026-05-04 13:39 | 20.59464 | 73.37383 | 25731 ft | 458 kts | 197° |
| 2026-05-04 13:39 | 20.56415 | 73.36365 | 25226 ft | 453 kts | 197° |
| 2026-05-04 13:40 | 20.53451 | 73.35375 | 24735 ft | 449 kts | 197° |
| 2026-05-04 13:40 | 20.50484 | 73.34381 | 24237 ft | 445 kts | 197° |
| 2026-05-04 13:40 | 20.47545 | 73.33386 | 23744 ft | 442 kts | 197° |
| 2026-05-04 13:40 | 20.44637 | 73.32405 | 23253 ft | 438 kts | 197° |
| 2026-05-04 13:41 | 20.41755 | 73.31438 | 22766 ft | 435 kts | 197° |
| 2026-05-04 13:41 | 20.38867 | 73.30473 | 22271 ft | 431 kts | 197° |
| 2026-05-04 13:41 | 20.36098 | 73.29552 | 21796 ft | 428 kts | 197° |
| 2026-05-04 13:42 | 20.30615 | 73.27732 | 20854 ft | 422 kts | 197° |
| 2026-05-04 13:42 | 20.27900 | 73.26831 | 20388 ft | 419 kts | 197° |
| 2026-05-04 13:42 | 20.25144 | 73.25916 | 19914 ft | 416 kts | 197° |
| 2026-05-04 13:42 | 20.22374 | 73.25015 | 19437 ft | 413 kts | 197° |
| 2026-05-04 13:43 | 20.19658 | 73.24155 | 18964 ft | 410 kts | 196° |
| 2026-05-04 13:43 | 20.16939 | 73.23299 | 18502 ft | 407 kts | 196° |
| 2026-05-04 13:43 | 20.14253 | 73.22454 | 18386 ft | 393 kts | 196° |
| 2026-05-04 13:43 | 20.11676 | 73.21641 | 18308 ft | 379 kts | 196° |
| 2026-05-04 13:44 | 20.09205 | 73.20860 | 18212 ft | 367 kts | 196° |
| 2026-05-04 13:44 | 20.06819 | 73.20109 | 18118 ft | 354 kts | 195° |
| 2026-05-04 13:44 | 20.04511 | 73.19531 | 18036 ft | 342 kts | 190° |
| 2026-05-04 13:44 | 20.02149 | 73.19186 | 17638 ft | 341 kts | 185° |
| 2026-05-04 13:45 | 19.99808 | 73.18977 | 17251 ft | 339 kts | 184° |
| 2026-05-04 13:45 | 19.97453 | 73.18789 | 16872 ft | 336 kts | 184° |
| 2026-05-04 13:45 | 19.95157 | 73.18604 | 16504 ft | 334 kts | 184° |
| 2026-05-04 13:45 | 19.92833 | 73.18415 | 16132 ft | 331 kts | 184° |
| 2026-05-04 13:46 | 19.90551 | 73.18226 | 15767 ft | 329 kts | 184° |
| 2026-05-04 13:46 | 19.88297 | 73.18038 | 15405 ft | 326 kts | 184° |
| 2026-05-04 13:46 | 19.86041 | 73.17850 | 15044 ft | 324 kts | 184° |
| 2026-05-04 13:46 | 19.83798 | 73.17662 | 14683 ft | 322 kts | 184° |
| 2026-05-04 13:47 | 19.81588 | 73.17477 | 14326 ft | 320 kts | 184° |
| 2026-05-04 13:47 | 19.79393 | 73.17292 | 13973 ft | 318 kts | 184° |
| 2026-05-04 13:47 | 19.77204 | 73.17107 | 13621 ft | 315 kts | 184° |
| 2026-05-04 13:47 | 19.75012 | 73.16923 | 13267 ft | 314 kts | 184° |
| 2026-05-04 13:48 | 19.72859 | 73.16742 | 12920 ft | 312 kts | 184° |
| 2026-05-04 13:48 | 19.70716 | 73.16561 | 12573 ft | 310 kts | 184° |
| 2026-05-04 13:48 | 19.68578 | 73.16381 | 12228 ft | 308 kts | 184° |
| 2026-05-04 13:48 | 19.66436 | 73.16201 | 11881 ft | 306 kts | 184° |
| 2026-05-04 13:49 | 19.64349 | 73.16026 | 11544 ft | 304 kts | 184° |
| 2026-05-04 13:49 | 19.62240 | 73.15849 | 11202 ft | 302 kts | 184° |
| 2026-05-04 13:49 | 19.60208 | 73.15679 | 10867 ft | 301 kts | 184° |
| 2026-05-04 13:49 | 19.58146 | 73.15506 | 10534 ft | 299 kts | 184° |
| 2026-05-04 13:50 | 19.56076 | 73.15332 | 10198 ft | 297 kts | 184° |
| 2026-05-04 13:50 | 19.54031 | 73.15160 | 9969 ft | 291 kts | 184° |
| 2026-05-04 13:50 | 19.52063 | 73.14999 | 9945 ft | 277 kts | 183° |
| 2026-05-04 13:50 | 19.50178 | 73.14927 | 9956 ft | 275 kts | 181° |
| 2026-05-04 13:51 | 19.48285 | 73.14881 | 9965 ft | 276 kts | 181° |
| 2026-05-04 13:51 | 19.46363 | 73.14840 | 9968 ft | 275 kts | 181° |
| 2026-05-04 13:51 | 19.44440 | 73.14798 | 9968 ft | 275 kts | 181° |
| 2026-05-04 13:51 | 19.42591 | 73.14757 | 9968 ft | 275 kts | 181° |
| 2026-05-04 13:52 | 19.38809 | 73.14672 | 9967 ft | 275 kts | 181° |
| 2026-05-04 13:52 | 19.36885 | 73.14629 | 9963 ft | 275 kts | 181° |
| 2026-05-04 13:52 | 19.34988 | 73.14585 | 9660 ft | 279 kts | 181° |
| 2026-05-04 13:53 | 19.33079 | 73.14542 | 9332 ft | 277 kts | 181° |
| 2026-05-04 13:53 | 19.31156 | 73.14499 | 9016 ft | 275 kts | 181° |
| 2026-05-04 13:53 | 19.29266 | 73.14457 | 8706 ft | 273 kts | 181° |
| 2026-05-04 13:54 | 19.25483 | 73.14371 | 8091 ft | 269 kts | 181° |
| 2026-05-04 13:54 | 19.23658 | 73.14329 | 7974 ft | 259 kts | 181° |
| 2026-05-04 13:54 | 19.20182 | 73.14237 | 8036 ft | 262 kts | 182° |
| 2026-05-04 13:55 | 19.18388 | 73.14148 | 7849 ft | 257 kts | 183° |
| 2026-05-04 13:55 | 19.14913 | 73.13959 | 7386 ft | 250 kts | 182° |
| 2026-05-04 13:55 | 19.13287 | 73.13875 | 7166 ft | 246 kts | 182° |
| 2026-05-04 13:56 | 19.11620 | 73.13789 | 6879 ft | 240 kts | 184° |
| 2026-05-04 13:56 | 19.10075 | 73.13397 | 6375 ft | 240 kts | 213° |
| 2026-05-04 13:56 | 19.08886 | 73.10395 | 5395 ft | 235 kts | 275° |
| 2026-05-04 13:57 | 19.09043 | 73.08699 | 4973 ft | 230 kts | 275° |
| 2026-05-04 13:57 | 19.09138 | 73.07076 | 4547 ft | 225 kts | 272° |
| 2026-05-04 13:58 | 19.09117 | 73.02316 | 3319 ft | 212 kts | 269° |
| 2026-05-04 13:58 | 19.09067 | 72.99335 | 2621 ft | 200 kts | 269° |
| 2026-05-04 13:58 | 19.09045 | 72.97884 | 2249 ft | 195 kts | 269° |
| 2026-05-04 13:59 | 19.09023 | 72.96500 | 1921 ft | 190 kts | 269° |
| 2026-05-04 13:59 | 19.09002 | 72.95132 | 1637 ft | 186 kts | 269° |
| 2026-05-04 13:59 | 19.08960 | 72.92461 | 1082 ft | 179 kts | 269° |
| 2026-05-04 14:00 | 19.08941 | 72.91190 | 814 ft | 176 kts | 269° |
| 2026-05-04 14:00 | 19.08901 | 72.88676 | 307 ft | 162 kts | 269° |
| 2026-05-04 14:00 | 19.08880 | 72.87504 | 103 ft | 157 kts | 269° |
| 2026-05-04 14:01 | 19.08860 | 72.86381 | 48 ft | 140 kts | 270° |
| 2026-05-04 14:01 | 19.08855 | 72.85673 | 48 ft | 53 kts | 269° |
| 2026-05-04 14:01 | 19.08922 | 72.85300 | 48 ft | 27 kts | 299° |
| 2026-05-04 14:02 | 19.08960 | 72.85229 | 48 ft | 10 kts | 300° |
| 2026-05-04 14:02 | 19.08999 | 72.85161 | 48 ft | 12 kts | 306° |
| 2026-05-04 14:02 | 19.09057 | 72.85176 | 48 ft | 10 kts | 24° |
| 2026-05-04 14:02 | 19.09117 | 72.85203 | 48 ft | 5 kts | 7° |
| 2026-05-04 14:03 | 19.09150 | 72.85202 | 48 ft | 0 kts | 360° |
| 2026-05-04 14:03 | 19.09152 | 72.85202 | 48 ft | 0 kts | 0° |